createdAt,value
2019-02-14T00:00:56.913Z,3.66
2019-02-14T00:01:56.920Z,3.69
2019-02-14T00:02:56.898Z,3.62
2019-02-14T00:03:56.886Z,3.61
2019-02-14T00:04:56.876Z,3.65
2019-02-14T00:05:56.853Z,3.54
2019-02-14T00:06:56.851Z,3.60
2019-02-14T00:07:56.830Z,3.54
2019-02-14T00:08:56.823Z,3.48
2019-02-14T00:09:56.824Z,3.48
2019-02-14T00:10:56.799Z,3.48
2019-02-14T00:11:56.800Z,3.47
2019-02-14T00:12:56.785Z,3.51
2019-02-14T00:13:56.767Z,3.45
2019-02-14T00:14:56.751Z,3.51
2019-02-14T00:15:56.744Z,3.48
2019-02-14T00:16:56.742Z,3.50
2019-02-14T00:17:56.747Z,3.47
2019-02-14T00:18:56.714Z,3.42
2019-02-14T00:19:56.700Z,3.47
2019-02-14T00:20:56.684Z,3.54
2019-02-14T00:21:56.697Z,3.47
2019-02-14T00:22:56.666Z,3.43
2019-02-14T00:23:56.651Z,3.36
2019-02-14T00:24:56.653Z,3.39
2019-02-14T00:25:56.635Z,3.31
2019-02-14T00:26:56.650Z,3.24
2019-02-14T00:27:56.607Z,3.29
2019-02-14T00:28:56.600Z,3.21
2019-02-14T00:29:56.587Z,3.18
2019-02-14T00:30:56.574Z,3.24
2019-02-14T00:31:56.580Z,3.23
2019-02-14T00:32:56.557Z,3.32
2019-02-14T00:33:56.545Z,3.21
2019-02-14T00:34:56.540Z,3.24
2019-02-14T00:35:56.520Z,3.14
2019-02-14T00:36:56.562Z,3.14
2019-02-14T00:37:56.502Z,3.18
2019-02-14T00:38:56.495Z,3.15
2019-02-14T00:39:56.522Z,3.15
2019-02-14T00:40:56.479Z,3.20
2019-02-14T00:41:56.466Z,3.13
2019-02-14T00:42:56.439Z,3.18
2019-02-14T00:43:56.431Z,3.17
2019-02-14T00:44:56.418Z,3.21
2019-02-14T00:45:56.439Z,3.15
2019-02-14T00:46:56.404Z,3.24
2019-02-14T00:47:56.390Z,3.23
2019-02-14T00:48:56.376Z,3.11
2019-02-14T00:49:56.368Z,3.06
2019-02-14T00:50:56.351Z,3.08
2019-02-14T00:51:56.354Z,2.99
2019-02-14T00:52:56.331Z,3.00
2019-02-14T00:53:56.312Z,2.95
2019-02-14T00:54:56.307Z,2.92
2019-02-14T00:55:56.297Z,2.97
2019-02-14T00:56:56.311Z,3.05
2019-02-14T00:57:56.305Z,3.08
2019-02-14T00:58:56.261Z,3.06
2019-02-14T00:59:56.248Z,2.95
2019-02-14T01:00:56.240Z,2.96
2019-02-14T01:01:56.227Z,3.02
2019-02-14T01:02:56.237Z,2.95
2019-02-14T01:03:56.202Z,2.97
2019-02-14T01:04:56.190Z,2.96
2019-02-14T01:05:56.210Z,2.90
2019-02-14T01:06:56.191Z,2.93
2019-02-14T01:07:56.178Z,2.97
2019-02-14T01:08:56.146Z,2.92
2019-02-14T01:09:56.140Z,2.89
2019-02-14T01:10:56.125Z,2.85
2019-02-14T01:11:56.110Z,2.82
2019-02-14T01:12:56.119Z,2.84
2019-02-14T01:13:56.104Z,2.89
2019-02-14T01:14:56.077Z,2.84
2019-02-14T01:15:56.071Z,2.87
2019-02-14T01:16:56.059Z,2.87
2019-02-14T01:17:56.059Z,2.85
2019-02-14T01:18:56.045Z,2.85
2019-02-14T01:19:56.023Z,2.87
2019-02-14T01:20:56.015Z,2.90
2019-02-14T01:21:56.000Z,2.89
2019-02-14T01:22:56.007Z,2.87
2019-02-14T01:23:55.987Z,2.85
2019-02-14T01:24:55.972Z,2.82
2019-02-14T01:25:55.959Z,2.79
2019-02-14T01:26:55.943Z,2.93
2019-02-14T01:27:55.956Z,2.78
2019-02-14T01:28:55.926Z,2.90
2019-02-14T01:29:55.932Z,2.85
2019-02-14T01:30:55.936Z,2.85
2019-02-14T01:31:55.895Z,2.89
2019-02-14T01:32:55.886Z,2.78
2019-02-14T01:33:55.863Z,2.79
2019-02-14T01:34:55.852Z,2.89
2019-02-14T01:35:55.861Z,2.74
2019-02-14T01:36:55.840Z,2.78
2019-02-14T01:37:55.844Z,2.71
2019-02-14T01:38:55.807Z,2.66
2019-02-14T01:39:55.798Z,2.66
2019-02-14T01:40:55.793Z,2.59
2019-02-14T01:41:55.777Z,2.57
2019-02-14T01:42:55.778Z,2.56
2019-02-14T01:43:55.757Z,2.61
2019-02-14T01:44:55.741Z,2.69
2019-02-14T01:45:55.727Z,2.69
2019-02-14T01:46:55.717Z,2.69
2019-02-14T01:47:55.723Z,2.69
2019-02-14T01:48:55.694Z,2.71
2019-02-14T01:49:55.684Z,2.77
2019-02-14T01:50:55.673Z,2.75
2019-02-14T01:51:55.666Z,2.81
2019-02-14T01:52:55.668Z,2.75
2019-02-14T01:53:55.644Z,2.71
2019-02-14T01:54:55.632Z,2.79
2019-02-14T01:55:55.627Z,2.69
2019-02-14T01:56:55.606Z,2.63
2019-02-14T01:57:55.626Z,2.60
2019-02-14T01:58:55.589Z,2.61
2019-02-14T01:59:55.577Z,2.72
2019-02-14T02:00:55.558Z,2.66
2019-02-14T02:01:55.553Z,2.77
2019-02-14T02:02:55.552Z,2.71
2019-02-14T02:03:55.528Z,2.71
2019-02-14T02:04:55.524Z,2.63
2019-02-14T02:05:55.510Z,2.59
2019-02-14T02:06:55.519Z,2.53
2019-02-14T02:07:55.498Z,2.45
2019-02-14T02:08:55.477Z,2.43
2019-02-14T02:09:55.458Z,2.30
2019-02-14T02:10:55.457Z,2.21
2019-02-14T02:11:55.457Z,2.30
2019-02-14T02:12:55.460Z,2.17
2019-02-14T02:13:55.411Z,2.18
2019-02-14T02:14:55.400Z,2.17
2019-02-14T02:15:55.416Z,2.20
2019-02-14T02:16:55.399Z,2.20
2019-02-14T02:17:55.377Z,2.14
2019-02-14T02:18:55.362Z,2.16
2019-02-14T02:19:55.353Z,2.18
2019-02-14T02:20:55.350Z,2.06
2019-02-14T02:21:55.340Z,2.02
2019-02-14T02:22:55.349Z,1.73
2019-02-14T02:23:55.318Z,1.79
2019-02-14T02:24:55.302Z,1.73
2019-02-14T02:25:55.285Z,1.65
2019-02-14T02:26:55.270Z,1.60
2019-02-14T02:27:55.274Z,1.59
2019-02-14T02:28:55.245Z,1.70
2019-02-14T02:29:55.236Z,1.59
2019-02-14T02:30:55.260Z,1.63
2019-02-14T02:31:55.213Z,1.68
2019-02-14T02:32:55.218Z,1.65
2019-02-14T02:33:55.217Z,1.65
2019-02-14T02:34:55.212Z,1.70
2019-02-14T02:36:00.342Z,1.68
2019-02-14T02:36:56.161Z,1.63
2019-02-14T02:37:55.155Z,1.58
2019-02-14T02:38:55.155Z,1.70
2019-02-14T02:39:55.129Z,1.63
2019-02-14T02:40:55.128Z,1.72
2019-02-14T02:41:55.104Z,1.63
2019-02-14T02:42:55.105Z,1.62
2019-02-14T02:43:55.140Z,1.65
2019-02-14T02:44:55.071Z,1.63
2019-02-14T02:45:55.068Z,1.68
2019-02-14T02:46:55.048Z,1.65
2019-02-14T02:47:55.054Z,1.69
2019-02-14T02:48:55.061Z,1.65
2019-02-14T02:49:55.038Z,1.70
2019-02-14T02:50:55.013Z,1.66
2019-02-14T02:51:55.004Z,1.66
2019-02-14T02:52:54.996Z,1.60
2019-02-14T02:53:54.991Z,1.63
2019-02-14T02:54:54.960Z,1.65
2019-02-14T02:55:54.950Z,1.73
2019-02-14T02:56:54.951Z,1.65
2019-02-14T02:57:54.928Z,1.77
2019-02-14T02:58:54.934Z,1.68
2019-02-14T02:59:54.906Z,1.77
2019-02-14T03:00:54.910Z,1.83
2019-02-14T03:01:54.889Z,1.86
2019-02-14T03:02:54.873Z,1.93
2019-02-14T03:03:54.873Z,1.90
2019-02-14T03:04:54.854Z,1.88
2019-02-14T03:05:54.852Z,1.98
2019-02-14T03:06:54.837Z,2.03
2019-02-14T03:07:54.823Z,1.88
2019-02-14T03:08:54.852Z,1.73
2019-02-14T03:09:54.810Z,1.77
2019-02-14T03:10:54.800Z,1.70
2019-02-14T03:11:54.784Z,1.76
2019-02-14T03:12:54.769Z,1.66
2019-02-14T03:13:54.767Z,1.63
2019-02-14T03:14:54.747Z,1.70
2019-02-14T03:15:54.738Z,1.73
2019-02-14T03:16:54.727Z,1.68
2019-02-14T03:17:54.716Z,1.69
2019-02-14T03:18:54.716Z,1.66
2019-02-14T03:19:54.692Z,1.62
2019-02-14T03:20:54.677Z,1.60
2019-02-14T03:21:54.684Z,1.63
2019-02-14T03:22:54.650Z,1.50
2019-02-14T03:23:54.658Z,1.54
2019-02-14T03:24:54.636Z,1.54
2019-02-14T03:25:54.618Z,1.52
2019-02-14T03:26:54.625Z,1.44
2019-02-14T03:27:54.595Z,1.45
2019-02-14T03:28:54.596Z,1.47
2019-02-14T03:29:54.575Z,1.42
2019-02-14T03:30:54.566Z,1.45
2019-02-14T03:31:54.558Z,1.47
2019-02-14T03:32:54.570Z,1.45
2019-02-14T03:33:54.605Z,1.44
2019-02-14T03:34:54.529Z,1.41
2019-02-14T03:35:54.519Z,1.37
2019-02-14T03:36:54.501Z,1.44
2019-02-14T03:37:54.492Z,1.45
2019-02-14T03:38:54.501Z,1.52
2019-02-14T03:39:54.468Z,1.54
2019-02-14T03:40:54.471Z,1.55
2019-02-14T03:41:54.444Z,1.65
2019-02-14T03:42:54.453Z,1.68
2019-02-14T03:43:54.442Z,1.70
2019-02-14T03:44:54.430Z,1.66
2019-02-14T03:45:54.407Z,1.69
2019-02-14T03:46:54.398Z,1.62
2019-02-14T03:47:54.375Z,1.60
2019-02-14T03:48:54.380Z,1.66
2019-02-14T03:49:54.359Z,1.66
2019-02-14T03:50:54.365Z,1.59
2019-02-14T03:51:54.359Z,1.63
2019-02-14T03:52:54.320Z,1.79
2019-02-14T03:53:54.324Z,1.66
2019-02-14T03:54:54.303Z,1.60
2019-02-14T03:55:54.295Z,1.76
2019-02-14T03:56:54.294Z,1.73
2019-02-14T03:57:54.280Z,1.77
2019-02-14T03:58:54.295Z,1.72
2019-02-14T03:59:54.262Z,1.83
2019-02-14T04:00:54.233Z,1.83
2019-02-14T04:01:54.222Z,1.84
2019-02-14T04:02:54.210Z,1.90
2019-02-14T04:03:54.224Z,1.88
2019-02-14T04:04:54.189Z,1.86
2019-02-14T04:05:54.180Z,1.99
2019-02-14T04:06:54.178Z,1.91
2019-02-14T04:07:54.176Z,1.93
2019-02-14T04:08:54.166Z,1.95
2019-02-14T04:09:54.154Z,1.88
2019-02-14T04:10:54.127Z,2.00
2019-02-14T04:11:54.123Z,2.09
2019-02-14T04:12:54.150Z,2.09
2019-02-14T04:13:54.111Z,2.07
2019-02-14T04:14:54.083Z,2.12
2019-02-14T04:15:54.072Z,2.05
2019-02-14T04:16:54.062Z,2.06
2019-02-14T04:17:54.059Z,2.06
2019-02-14T04:18:54.048Z,2.16
2019-02-14T04:19:54.033Z,2.09
2019-02-14T04:20:54.016Z,2.12
2019-02-14T04:21:54.017Z,2.18
2019-02-14T04:22:54.008Z,2.12
2019-02-14T04:23:53.993Z,2.12
2019-02-14T04:24:53.976Z,2.12
2019-02-14T04:25:53.962Z,2.16
2019-02-14T04:26:53.956Z,2.06
2019-02-14T04:27:53.939Z,2.16
2019-02-14T04:28:53.938Z,2.18
2019-02-14T04:29:53.914Z,2.16
2019-02-14T04:30:53.910Z,2.16
2019-02-14T04:31:53.901Z,2.14
2019-02-14T04:32:53.889Z,2.17
2019-02-14T04:33:53.884Z,2.17
2019-02-14T04:34:53.859Z,2.16
2019-02-14T04:35:53.861Z,2.16
2019-02-14T04:36:53.845Z,2.23
2019-02-14T04:37:53.825Z,2.18
2019-02-14T04:38:53.846Z,2.23
2019-02-14T04:39:53.820Z,2.14
2019-02-14T04:40:53.792Z,2.12
2019-02-14T04:41:53.788Z,2.10
2019-02-14T04:42:53.817Z,2.05
2019-02-14T04:43:53.776Z,2.00
2019-02-14T04:44:53.759Z,2.02
2019-02-14T04:45:53.740Z,1.91
2019-02-14T04:46:53.728Z,2.02
2019-02-14T04:47:53.725Z,1.99
2019-02-14T04:48:53.734Z,2.02
2019-02-14T04:49:53.728Z,2.03
2019-02-14T04:50:53.684Z,2.10
2019-02-14T04:51:53.675Z,2.07
2019-02-14T04:52:53.664Z,2.07
2019-02-14T04:53:53.671Z,1.95
2019-02-14T04:54:53.642Z,2.02
2019-02-14T04:55:53.647Z,2.00
2019-02-14T04:56:53.636Z,2.09
2019-02-14T04:57:53.621Z,2.03
2019-02-14T04:58:53.631Z,2.02
2019-02-14T04:59:53.583Z,1.98
2019-02-14T05:00:53.760Z,2.02
2019-02-14T05:01:53.565Z,2.02
2019-02-14T05:02:53.562Z,2.07
2019-02-14T05:03:53.560Z,2.10
2019-02-14T05:04:53.533Z,2.07
2019-02-14T05:05:53.540Z,2.12
2019-02-14T05:06:53.520Z,2.00
2019-02-14T05:07:53.495Z,1.95
2019-02-14T05:08:53.488Z,1.98
2019-02-14T05:09:53.497Z,1.84
2019-02-14T05:10:53.470Z,1.76
2019-02-14T05:11:53.473Z,1.77
2019-02-14T05:12:53.440Z,1.83
2019-02-14T05:13:53.453Z,1.81
2019-02-14T05:14:53.440Z,1.72
2019-02-14T05:15:53.470Z,1.68
2019-02-14T05:16:53.401Z,1.73
2019-02-14T05:17:53.404Z,1.66
2019-02-14T05:18:53.379Z,1.63
2019-02-14T05:19:53.393Z,1.66
2019-02-14T05:20:53.356Z,1.68
2019-02-14T05:21:53.355Z,1.66
2019-02-14T05:22:53.356Z,1.68
2019-02-14T05:23:53.325Z,1.68
2019-02-14T05:24:53.357Z,1.63
2019-02-14T05:25:53.303Z,1.62
2019-02-14T05:26:53.290Z,1.65
2019-02-14T05:27:53.278Z,1.68
2019-02-14T05:28:53.271Z,1.62
2019-02-14T05:29:53.287Z,1.62
2019-02-14T05:30:53.244Z,1.59
2019-02-14T05:31:53.237Z,1.76
2019-02-14T05:32:53.231Z,1.68
2019-02-14T05:33:53.210Z,1.72
2019-02-14T05:34:53.220Z,1.65
2019-02-14T05:35:53.200Z,1.73
2019-02-14T05:36:55.208Z,1.69
2019-02-14T05:37:53.166Z,1.76
2019-02-14T05:38:53.155Z,1.68
2019-02-14T05:39:53.163Z,1.76
2019-02-14T05:40:53.133Z,1.69
2019-02-14T05:41:53.122Z,1.73
2019-02-14T05:42:53.121Z,1.68
2019-02-14T05:43:53.147Z,1.76
2019-02-14T05:44:53.104Z,1.72
2019-02-14T05:45:53.079Z,1.70
2019-02-14T05:46:53.075Z,1.76
2019-02-14T05:47:53.090Z,1.77
2019-02-14T05:48:53.045Z,1.76
2019-02-14T05:49:53.056Z,1.70
2019-02-14T05:50:53.026Z,1.59
2019-02-14T05:51:53.024Z,1.62
2019-02-14T05:52:53.004Z,1.65
2019-02-14T05:53:52.993Z,1.59
2019-02-14T05:54:52.991Z,1.58
2019-02-14T05:55:52.979Z,1.62
2019-02-14T05:56:52.979Z,1.62
2019-02-14T05:57:52.960Z,1.65
2019-02-14T05:58:52.940Z,1.69
2019-02-14T05:59:52.943Z,1.68
2019-02-14T06:00:52.954Z,1.68
2019-02-14T06:01:52.907Z,1.65
2019-02-14T06:02:52.911Z,1.63
2019-02-14T06:03:52.883Z,1.62
2019-02-14T06:04:52.895Z,1.62
2019-02-14T06:05:52.872Z,1.66
2019-02-14T06:07:00.766Z,1.54
2019-02-14T06:07:53.836Z,1.63
2019-02-14T06:08:52.828Z,1.60
2019-02-14T06:09:52.828Z,1.51
2019-02-14T06:10:52.803Z,1.63
2019-02-14T06:11:52.791Z,1.62
2019-02-14T06:12:52.786Z,1.54
2019-02-14T06:13:52.774Z,1.59
2019-02-14T06:14:52.787Z,1.68
2019-02-14T06:15:52.749Z,1.58
2019-02-14T06:16:52.742Z,1.65
2019-02-14T06:17:52.726Z,1.66
2019-02-14T06:18:52.715Z,1.65
2019-02-14T06:19:52.723Z,1.63
2019-02-14T06:20:52.703Z,1.59
2019-02-14T06:21:52.688Z,1.60
2019-02-14T06:22:52.681Z,1.62
2019-02-14T06:23:52.664Z,1.68
2019-02-14T06:24:52.709Z,1.60
2019-02-14T06:25:52.661Z,1.52
2019-02-14T06:26:52.641Z,1.59
2019-02-14T06:27:52.641Z,1.42
2019-02-14T06:28:52.605Z,1.40
2019-02-14T06:29:52.634Z,1.42
2019-02-14T06:30:52.587Z,1.50
2019-02-14T06:31:52.576Z,1.47
2019-02-14T06:32:52.562Z,1.44
2019-02-14T06:33:52.559Z,1.52
2019-02-14T06:34:52.571Z,1.54
2019-02-14T06:35:52.535Z,1.48
2019-02-14T06:36:52.547Z,1.48
2019-02-14T06:37:52.522Z,1.51
2019-02-14T06:38:52.495Z,1.58
2019-02-14T06:39:52.497Z,1.48
2019-02-14T06:40:52.474Z,1.47
2019-02-14T06:41:52.467Z,1.48
2019-02-14T06:42:52.454Z,1.58
2019-02-14T06:43:52.504Z,1.50
2019-02-14T06:44:52.471Z,1.55
2019-02-14T06:45:52.420Z,1.52
2019-02-14T06:46:52.408Z,1.48
2019-02-14T06:47:52.396Z,1.51
2019-02-14T06:48:52.402Z,1.52
2019-02-14T06:49:52.401Z,1.59
2019-02-14T06:50:52.367Z,1.58
2019-02-14T06:51:52.350Z,1.54
2019-02-14T06:52:52.340Z,1.41
2019-02-14T06:53:52.348Z,1.42
2019-02-14T06:54:52.357Z,1.36
2019-02-14T06:55:52.308Z,1.40
2019-02-14T06:56:52.310Z,1.44
2019-02-14T06:57:52.286Z,1.42
2019-02-14T06:58:52.275Z,1.50
2019-02-14T06:59:52.286Z,1.52
2019-02-14T07:00:52.264Z,1.54
2019-02-14T07:01:52.242Z,1.45
2019-02-14T07:02:52.249Z,1.42
2019-02-14T07:03:52.238Z,1.42
2019-02-14T07:04:52.228Z,1.34
2019-02-14T07:05:52.209Z,1.34
2019-02-14T07:06:52.205Z,1.42
2019-02-14T07:07:52.180Z,1.42
2019-02-14T07:08:52.165Z,1.40
2019-02-14T07:09:52.196Z,1.40
2019-02-14T07:10:52.147Z,1.37
2019-02-14T07:11:52.153Z,1.37
2019-02-14T07:12:52.171Z,1.37
2019-02-14T07:13:52.147Z,1.42
2019-02-14T07:14:52.102Z,1.47
2019-02-14T07:15:52.105Z,1.47
2019-02-14T07:16:52.079Z,1.54
2019-02-14T07:17:52.072Z,1.51
2019-02-14T07:18:52.067Z,1.54
2019-02-14T07:19:52.063Z,1.47
2019-02-14T07:20:52.056Z,1.51
2019-02-14T07:21:52.042Z,1.55
2019-02-14T07:22:52.053Z,1.58
2019-02-14T07:23:52.010Z,1.58
2019-02-14T07:24:51.991Z,1.54
2019-02-14T07:25:51.992Z,1.63
2019-02-14T07:26:51.972Z,1.68
2019-02-14T07:27:51.958Z,1.65
2019-02-14T07:28:51.954Z,1.65
2019-02-14T07:29:51.939Z,1.65
2019-02-14T07:30:51.946Z,1.58
2019-02-14T07:31:51.913Z,1.72
2019-02-14T07:32:51.910Z,1.72
2019-02-14T07:33:51.911Z,1.68
2019-02-14T07:34:51.893Z,1.76
2019-02-14T07:35:51.879Z,1.70
2019-02-14T07:36:51.866Z,1.77
2019-02-14T07:37:51.846Z,1.70
2019-02-14T07:38:51.874Z,1.83
2019-02-14T07:39:51.825Z,1.79
2019-02-14T07:40:51.842Z,1.76
2019-02-14T07:41:51.802Z,1.73
2019-02-14T07:42:51.795Z,1.77
2019-02-14T07:43:51.807Z,1.79
2019-02-14T07:44:51.786Z,1.95
2019-02-14T07:45:51.772Z,1.99
2019-02-14T07:46:51.762Z,2.02
2019-02-14T07:47:51.753Z,2.14
2019-02-14T07:48:51.745Z,2.14
2019-02-14T07:49:51.720Z,2.09
2019-02-14T07:50:51.713Z,2.18
2019-02-14T07:51:51.711Z,2.16
2019-02-14T07:52:51.684Z,2.16
2019-02-14T07:53:51.674Z,2.09
2019-02-14T07:54:51.671Z,2.12
2019-02-14T07:55:51.662Z,2.16
2019-02-14T07:56:52.532Z,2.10
2019-02-14T07:57:51.641Z,2.14
2019-02-14T07:58:51.621Z,2.18
2019-02-14T07:59:51.610Z,2.24
2019-02-14T08:00:51.605Z,2.27
2019-02-14T08:01:51.597Z,2.25
2019-02-14T08:02:51.571Z,2.30
2019-02-14T08:03:51.575Z,2.36
2019-02-14T08:04:51.570Z,2.39
2019-02-14T08:05:51.567Z,2.45
2019-02-14T08:06:51.545Z,2.48
2019-02-14T08:07:51.565Z,2.48
2019-02-14T08:08:51.506Z,2.49
2019-02-14T08:09:51.492Z,2.49
2019-02-14T08:10:51.495Z,2.45
2019-02-14T08:11:51.501Z,2.48
2019-02-14T08:12:51.464Z,2.53
2019-02-14T08:13:51.454Z,2.57
2019-02-14T08:14:51.445Z,2.64
2019-02-14T08:15:51.427Z,2.54
2019-02-14T08:16:51.428Z,2.59
2019-02-14T08:17:51.407Z,2.63
2019-02-14T08:18:51.398Z,2.69
2019-02-14T08:19:51.383Z,2.69
2019-02-14T08:20:51.371Z,2.61
2019-02-14T08:21:51.377Z,2.69
2019-02-14T08:22:51.352Z,2.63
2019-02-14T08:23:51.348Z,2.60
2019-02-14T08:24:51.343Z,2.56
2019-02-14T08:25:51.319Z,2.59
2019-02-14T08:26:51.315Z,2.59
2019-02-14T08:27:51.299Z,2.60
2019-02-14T08:28:51.282Z,2.61
2019-02-14T08:29:51.816Z,2.60
2019-02-14T08:30:51.278Z,2.63
2019-02-14T08:31:51.287Z,2.77
2019-02-14T08:32:51.244Z,2.71
2019-02-14T08:33:51.229Z,2.74
2019-02-14T08:34:51.241Z,2.75
2019-02-14T08:35:51.202Z,2.87
2019-02-14T08:36:51.210Z,2.84
2019-02-14T08:37:51.193Z,2.87
2019-02-14T08:38:51.168Z,2.99
2019-02-14T08:39:51.158Z,2.96
2019-02-14T08:40:51.147Z,3.08
2019-02-14T08:41:51.153Z,3.10
2019-02-14T08:42:51.132Z,3.15
2019-02-14T08:43:51.112Z,3.08
2019-02-14T08:44:51.116Z,3.20
2019-02-14T08:45:51.096Z,3.21
2019-02-14T08:46:51.102Z,3.24
2019-02-14T08:47:51.069Z,3.39
2019-02-14T08:48:51.055Z,3.40
2019-02-14T08:49:51.051Z,3.50
2019-02-14T08:50:51.057Z,3.52
2019-02-14T08:51:51.032Z,3.51
2019-02-14T08:52:51.025Z,3.62
2019-02-14T08:53:51.002Z,3.61
2019-02-14T08:54:50.995Z,3.61
2019-02-14T08:55:50.976Z,3.68
2019-02-14T08:56:50.968Z,3.75
2019-02-14T08:57:50.976Z,3.84
2019-02-14T08:58:50.951Z,3.90
2019-02-14T08:59:50.956Z,3.96
2019-02-14T09:00:50.971Z,3.94
2019-02-14T09:01:50.910Z,4.08
2019-02-14T09:02:50.917Z,4.12
2019-02-14T09:03:50.891Z,4.09
2019-02-14T09:04:50.881Z,4.16
2019-02-14T09:05:50.866Z,4.23
2019-02-14T09:06:50.874Z,4.33
2019-02-14T09:07:54.644Z,4.36
2019-02-14T09:08:50.833Z,4.63
2019-02-14T09:09:50.855Z,4.70
2019-02-14T09:10:50.817Z,4.69
2019-02-14T09:11:50.816Z,4.84
2019-02-14T09:12:50.808Z,4.80
2019-02-14T09:13:50.790Z,4.92
2019-02-14T09:14:50.768Z,5.02
2019-02-14T09:15:50.755Z,5.12
2019-02-14T09:16:50.763Z,5.15
2019-02-14T09:17:50.763Z,5.20
2019-02-14T09:18:50.721Z,5.15
2019-02-14T09:19:50.710Z,5.00
2019-02-14T09:20:50.700Z,4.91
2019-02-14T09:21:50.692Z,4.88
2019-02-14T09:22:50.694Z,4.92
2019-02-14T09:23:50.665Z,4.88
2019-02-14T09:24:50.654Z,4.78
2019-02-14T09:25:50.644Z,4.99
2019-02-14T09:26:50.637Z,5.45
2019-02-14T09:27:50.620Z,6.11
2019-02-14T09:28:50.620Z,6.66
2019-02-14T09:29:50.595Z,7.34
2019-02-14T09:30:50.598Z,7.82
2019-02-14T09:31:50.575Z,7.82
2019-02-14T09:32:50.562Z,7.58
2019-02-14T09:33:50.567Z,7.50
2019-02-14T09:34:50.550Z,7.48
2019-02-14T09:35:50.533Z,7.40
2019-02-14T09:36:50.519Z,7.74
2019-02-14T09:37:50.540Z,8.37
2019-02-14T09:38:50.511Z,8.73
2019-02-14T09:39:50.491Z,9.14
2019-02-14T09:40:50.483Z,9.38
2019-02-14T09:41:50.463Z,9.69
2019-02-14T09:42:50.463Z,10.11
2019-02-14T09:43:50.453Z,10.23
2019-02-14T09:44:50.447Z,10.01
2019-02-14T09:45:50.428Z,10.05
2019-02-14T09:46:50.410Z,10.40
2019-02-14T09:47:50.403Z,10.81
2019-02-14T09:48:50.403Z,11.02
2019-02-14T09:49:50.386Z,11.35
2019-02-14T09:50:50.366Z,11.14
2019-02-14T09:51:50.363Z,10.60
2019-02-14T09:52:50.344Z,9.90
2019-02-14T09:53:50.343Z,9.50
2019-02-14T09:54:50.330Z,9.51
2019-02-14T09:55:50.307Z,9.90
2019-02-14T09:56:50.300Z,10.27
2019-02-14T09:57:50.289Z,10.32
2019-02-14T09:58:50.299Z,10.34
2019-02-14T09:59:50.260Z,10.55
2019-02-14T10:00:50.248Z,10.63
2019-02-14T10:01:50.239Z,10.97
2019-02-14T10:02:50.239Z,11.18
2019-02-14T10:03:50.236Z,11.46
2019-02-14T10:04:50.209Z,11.55
2019-02-14T10:05:50.200Z,11.25
2019-02-14T10:06:50.203Z,11.27
2019-02-14T10:07:50.178Z,11.22
2019-02-14T10:08:50.200Z,11.15
2019-02-14T10:09:50.177Z,10.94
2019-02-14T10:10:50.140Z,11.04
2019-02-14T10:11:50.142Z,10.94
2019-02-14T10:12:50.112Z,10.40
2019-02-14T10:13:50.120Z,10.34
2019-02-14T10:14:50.095Z,10.27
2019-02-14T10:15:50.079Z,9.87
2019-02-14T10:16:50.069Z,9.90
2019-02-14T10:17:50.068Z,10.20
2019-02-14T10:18:50.064Z,10.25
2019-02-14T10:19:50.035Z,10.30
2019-02-14T10:20:50.024Z,10.27
2019-02-14T10:21:50.023Z,9.60
2019-02-14T10:22:50.001Z,9.48
2019-02-14T10:23:50.013Z,9.08
2019-02-14T10:24:49.991Z,8.98
2019-02-14T10:25:49.985Z,8.63
2019-02-14T10:26:50.679Z,8.44
2019-02-14T10:27:49.942Z,8.10
2019-02-14T10:28:49.947Z,7.83
2019-02-14T10:29:49.923Z,7.80
2019-02-14T10:30:49.916Z,7.79
2019-02-14T10:31:49.911Z,7.92
2019-02-14T10:32:49.884Z,8.10
2019-02-14T10:33:49.928Z,8.44
2019-02-14T10:34:49.872Z,8.80
2019-02-14T10:35:49.865Z,9.14
2019-02-14T10:36:49.843Z,9.50
2019-02-14T10:37:49.839Z,10.09
2019-02-14T10:38:49.818Z,10.26
2019-02-14T10:39:49.818Z,10.36
2019-02-14T10:40:49.811Z,10.81
2019-02-14T10:41:49.800Z,11.03
2019-02-14T10:42:49.788Z,11.25
2019-02-14T10:43:49.765Z,11.44
2019-02-14T10:44:49.764Z,11.61
2019-02-14T10:45:49.740Z,11.69
2019-02-14T10:46:49.730Z,11.69
2019-02-14T10:47:49.729Z,11.75
2019-02-14T10:48:49.721Z,11.36
2019-02-14T10:49:49.709Z,11.07
2019-02-14T10:50:49.687Z,10.68
2019-02-14T10:51:49.676Z,10.26
2019-02-14T10:52:49.662Z,10.23
2019-02-14T10:53:49.653Z,10.27
2019-02-14T10:54:49.658Z,9.94
2019-02-14T10:55:49.623Z,9.64
2019-02-14T10:56:49.612Z,9.64
2019-02-14T10:57:49.601Z,9.61
2019-02-14T10:58:49.589Z,9.68
2019-02-14T10:59:49.604Z,10.02
2019-02-14T11:00:49.580Z,10.29
2019-02-14T11:01:49.572Z,10.27
2019-02-14T11:02:49.556Z,10.56
2019-02-14T11:03:49.533Z,10.63
2019-02-14T11:04:49.551Z,10.74
2019-02-14T11:05:49.530Z,10.55
2019-02-14T11:06:49.507Z,10.25
2019-02-14T11:07:49.499Z,10.27
2019-02-14T11:08:49.483Z,10.52
2019-02-14T11:09:49.468Z,10.67
2019-02-14T11:10:49.488Z,10.82
2019-02-14T11:11:49.443Z,10.33
2019-02-14T11:12:49.435Z,10.27
2019-02-14T11:13:49.422Z,10.09
2019-02-14T11:14:49.440Z,10.30
2019-02-14T11:15:49.412Z,10.29
2019-02-14T11:16:49.385Z,9.96
2019-02-14T11:17:49.407Z,9.99
2019-02-14T11:18:49.395Z,9.93
2019-02-14T11:19:49.358Z,9.83
2019-02-14T11:20:49.356Z,10.11
2019-02-14T11:21:49.330Z,10.26
2019-02-14T11:22:49.578Z,10.30
2019-02-14T11:23:49.317Z,10.59
2019-02-14T11:24:49.309Z,10.64
2019-02-14T11:25:49.300Z,10.48
2019-02-14T11:26:49.278Z,10.30
2019-02-14T11:27:49.264Z,10.18
2019-02-14T11:28:49.255Z,10.17
2019-02-14T11:29:49.280Z,10.25
2019-02-14T11:30:49.249Z,10.27
2019-02-14T11:31:49.284Z,10.40
2019-02-14T11:32:49.209Z,10.38
2019-02-14T11:33:49.212Z,10.56
2019-02-14T11:34:49.182Z,10.81
2019-02-14T11:35:49.226Z,10.82
2019-02-14T11:36:49.163Z,10.79
2019-02-14T11:37:49.188Z,10.94
2019-02-14T11:38:49.142Z,10.94
2019-02-14T11:39:49.153Z,11.04
2019-02-14T11:40:49.130Z,11.11
2019-02-14T11:41:49.104Z,10.82
2019-02-14T11:42:49.094Z,10.44
2019-02-14T11:43:49.082Z,10.45
2019-02-14T11:44:49.093Z,10.25
2019-02-14T11:45:49.096Z,10.52
2019-02-14T11:46:51.490Z,11.03
2019-02-14T11:47:49.037Z,11.15
2019-02-14T11:48:49.037Z,11.22
2019-02-14T11:49:49.020Z,11.43
2019-02-14T11:50:49.020Z,11.47
2019-02-14T11:51:49.008Z,11.27
2019-02-14T11:52:48.981Z,11.22
2019-02-14T11:53:48.973Z,11.28
2019-02-14T11:54:48.964Z,11.32
2019-02-14T11:55:48.959Z,11.21
2019-02-14T11:56:48.933Z,11.35
2019-02-14T11:57:48.923Z,11.46
2019-02-14T11:58:48.915Z,11.61
2019-02-14T11:59:48.901Z,11.62
2019-02-14T12:00:48.894Z,11.19
2019-02-14T12:01:55.121Z,11.22
2019-02-14T12:02:55.546Z,11.15
2019-02-14T12:03:49.867Z,10.94
2019-02-14T12:04:48.864Z,10.71
2019-02-14T12:05:48.833Z,10.36
2019-02-14T12:06:48.938Z,10.60
2019-02-14T12:07:48.809Z,10.73
2019-02-14T12:08:59.420Z,10.76
2019-02-14T12:09:49.784Z,10.92
2019-02-14T12:10:48.787Z,11.00
2019-02-14T12:11:48.791Z,10.73
2019-02-14T12:12:48.763Z,10.74
2019-02-14T12:13:48.743Z,10.71
2019-02-14T12:14:48.780Z,10.91
2019-02-14T12:15:48.728Z,10.88
2019-02-14T12:16:48.722Z,10.92
2019-02-14T12:17:48.707Z,10.99
2019-02-14T12:18:48.705Z,11.18
2019-02-14T12:19:49.017Z,11.07
2019-02-14T12:20:48.663Z,10.96
2019-02-14T12:21:48.688Z,10.78
2019-02-14T12:22:48.640Z,10.51
2019-02-14T12:23:48.641Z,10.45
2019-02-14T12:24:48.619Z,10.63
2019-02-14T12:25:48.604Z,10.70
2019-02-14T12:26:48.606Z,10.70
2019-02-14T12:27:48.583Z,10.81
2019-02-14T12:28:48.589Z,10.92
2019-02-14T12:29:48.583Z,10.68
2019-02-14T12:30:48.559Z,10.56
2019-02-14T12:31:48.555Z,10.30
2019-02-14T12:32:48.529Z,10.23
2019-02-14T12:33:48.518Z,10.18
2019-02-14T12:34:48.523Z,10.20
2019-02-14T12:35:48.492Z,10.25
2019-02-14T12:36:48.521Z,10.33
2019-02-14T12:37:48.482Z,10.42
2019-02-14T12:38:48.485Z,10.40
2019-02-14T12:39:48.459Z,10.48
2019-02-14T12:40:48.459Z,10.61
2019-02-14T12:41:48.430Z,10.91
2019-02-14T12:42:48.427Z,11.33
2019-02-14T12:43:48.410Z,11.79
2019-02-14T12:44:48.402Z,11.80
2019-02-14T12:45:48.402Z,11.79
2019-02-14T12:46:48.390Z,11.70
2019-02-14T12:47:48.381Z,11.67
2019-02-14T12:48:48.355Z,12.09
2019-02-14T12:49:48.348Z,12.38
2019-02-14T12:50:48.326Z,12.62
2019-02-14T12:51:48.312Z,12.68
2019-02-14T12:52:48.339Z,12.59
2019-02-14T12:53:48.292Z,12.72
2019-02-14T12:54:48.292Z,12.60
2019-02-14T12:55:48.297Z,12.59
2019-02-14T12:56:48.263Z,12.62
2019-02-14T12:57:48.312Z,12.49
2019-02-14T12:58:48.231Z,12.47
2019-02-14T12:59:48.222Z,12.52
2019-02-14T13:00:48.226Z,12.42
2019-02-14T13:01:48.206Z,12.34
2019-02-14T13:02:48.202Z,12.31
2019-02-14T13:03:48.180Z,11.79
2019-02-14T13:04:48.172Z,11.75
2019-02-14T13:05:48.162Z,11.85
2019-02-14T13:06:48.143Z,11.91
2019-02-14T13:07:48.158Z,12.17
2019-02-14T13:08:48.133Z,12.39
2019-02-14T13:09:48.108Z,12.72
2019-02-14T13:10:48.099Z,13.59
2019-02-14T13:11:48.091Z,13.78
2019-02-14T13:12:48.104Z,13.97